Time;durP1;ratioP1;P1;durP2;ratioP2;P2;SDS_P1;SDS_P2;PMS_P1;PMS_P2;Temp;Humidity;BMP_temperature;BMP_pressure;BME280_temperature;BME280_humidity;BME280_pressure;Samples;Min_cycle;Max_cycle;Signal;HPM_P1;HPM_P2
2023/09/05 00:01:58;;;;;;;8.07;4.40;;;18.00;99.90;;;;;;5004541;28;20434;-82
2023/09/05 00:04:24;;;;;;;6.90;3.30;;;18.00;99.90;;;;;;5014944;28;20206;-82
2023/09/05 00:06:49;;;;;;;4.10;3.20;;;18.00;99.90;;;;;;5007723;28;20180;-80
2023/09/05 00:09:19;;;;;;;7.40;4.77;;;18.10;99.90;;;;;;5007524;28;20490;-81
2023/09/05 00:11:46;;;;;;;5.40;4.20;;;18.10;99.90;;;;;;5006301;28;20185;-78
2023/09/05 00:14:11;;;;;;;6.20;3.67;;;18.10;99.90;;;;;;4998418;28;20468;-79
2023/09/05 00:16:38;;;;;;;9.33;4.10;;;18.10;99.90;;;;;;5005101;28;20445;-82
2023/09/05 00:19:05;;;;;;;7.20;3.83;;;18.00;99.90;;;;;;5001123;28;20187;-81
2023/09/05 00:21:31;;;;;;;4.87;4.37;;;18.00;99.90;;;;;;5000458;28;20737;-82
2023/09/05 00:24:31;;;;;;;8.27;3.87;;;17.90;99.90;;;;;;5000519;28;21136;-83
2023/09/05 00:26:58;;;;;;;8.10;3.93;;;17.90;99.90;;;;;;5000808;28;20236;-81
2023/09/05 00:29:26;;;;;;;5.23;3.83;;;17.80;99.90;;;;;;5000495;28;20469;-78
2023/09/05 00:31:59;;;;;;;5.87;4.10;;;17.70;99.90;;;;;;5000305;28;20780;-83
2023/09/05 00:34:34;;;;;;;4.43;3.50;;;17.60;99.90;;;;;;4997435;28;20519;-83
2023/09/05 00:37:01;;;;;;;7.13;3.80;;;17.70;99.90;;;;;;5007961;28;20974;-79
2023/09/05 00:39:27;;;;;;;5.23;4.07;;;17.60;99.90;;;;;;5005978;28;20493;-79
2023/09/05 00:41:56;;;;;;;8.83;4.10;;;17.60;99.90;;;;;;5003925;28;20541;-83
2023/09/05 00:44:26;;;;;;;4.87;3.80;;;17.60;99.90;;;;;;5002993;28;20480;-78
2023/09/05 00:46:54;;;;;;;4.13;3.53;;;17.60;99.90;;;;;;5012214;28;20465;-78
2023/09/05 00:49:22;;;;;;;5.67;3.13;;;17.50;99.90;;;;;;4999346;28;20528;-82
2023/09/05 00:51:52;;;;;;;7.40;4.10;;;17.50;99.90;;;;;;4998839;28;20434;-80
2023/09/05 00:54:18;;;;;;;4.13;2.80;;;17.40;99.90;;;;;;4998933;28;20472;-84
2023/09/05 00:56:45;;;;;;;6.00;3.63;;;17.40;99.90;;;;;;5000884;28;20430;-81
2023/09/05 00:59:12;;;;;;;7.00;4.20;;;17.40;99.90;;;;;;4998803;28;20445;-81
2023/09/05 01:01:37;;;;;;;4.13;3.43;;;17.30;99.90;;;;;;5000138;28;21230;-81
2023/09/05 01:04:04;;;;;;;4.70;3.83;;;17.40;99.90;;;;;;4998936;28;20445;-83
2023/09/05 01:06:52;;;;;;;8.90;4.03;;;17.10;99.90;;;;;;4997371;28;20720;-82
2023/09/05 01:09:39;;;;;;;4.67;3.40;;;17.00;99.90;;;;;;5015471;28;20468;-81
2023/09/05 01:12:07;;;;;;;8.27;3.50;;;17.80;99.90;;;;;;5010229;28;20425;-82
2023/09/05 01:14:32;;;;;;;5.87;3.37;;;16.80;99.90;;;;;;5003194;28;20544;-83
2023/09/05 01:17:01;;;;;;;7.10;2.90;;;16.80;99.90;;;;;;5005688;28;20466;-81
2023/09/05 01:19:30;;;;;;;3.63;3.13;;;16.80;99.90;;;;;;5002972;28;20202;-82
2023/09/05 01:22:43;;;;;;;6.37;3.60;;;16.80;99.90;;;;;;5007201;28;20595;-82
2023/09/05 01:25:11;;;;;;;6.40;3.20;;;16.80;99.90;;;;;;5002279;28;20469;-82
2023/09/05 01:27:36;;;;;;;4.07;3.30;;;16.80;99.90;;;;;;5002625;28;21527;-81
2023/09/05 01:30:05;;;;;;;6.50;3.77;;;16.80;99.90;;;;;;4998352;28;20538;-83
2023/09/05 01:32:31;;;;;;;5.83;3.30;;;16.80;99.90;;;;;;5000045;28;20273;-84
2023/09/05 01:34:57;;;;;;;4.10;3.03;;;16.70;99.90;;;;;;4997058;28;20536;-80
2023/09/05 01:37:23;;;;;;;4.67;3.10;;;16.80;99.90;;;;;;4996045;28;20194;-83
2023/09/05 01:39:49;;;;;;;8.40;3.53;;;16.80;99.90;;;;;;4996994;28;21149;-78
2023/09/05 01:42:14;;;;;;;3.50;2.53;;;16.80;99.90;;;;;;4997813;28;20465;-81
2023/09/05 01:44:40;;;;;;;6.30;2.57;;;16.70;99.90;;;;;;4999838;28;20257;-81
2023/09/05 01:47:06;;;;;;;5.13;3.03;;;16.80;99.90;;;;;;5003251;28;20269;-87
2023/09/05 01:49:32;;;;;;;3.80;2.80;;;16.80;99.90;;;;;;4997016;28;20267;-82
2023/09/05 01:51:57;;;;;;;4.47;2.97;;;16.90;99.90;;;;;;4998657;28;20499;-82
2023/09/05 01:54:24;;;;;;;5.43;2.83;;;16.90;99.90;;;;;;4996201;28;20195;-80
2023/09/05 01:56:50;;;;;;;4.23;2.80;;;16.80;99.90;;;;;;4997799;28;20190;-80
2023/09/05 01:59:19;;;;;;;5.20;3.37;;;16.80;99.90;;;;;;4996524;28;21387;-81
2023/09/05 02:01:44;;;;;;;5.13;2.80;;;16.80;99.90;;;;;;5010841;28;20194;-82
2023/09/05 02:04:10;;;;;;;3.93;3.00;;;16.90;99.90;;;;;;4997958;28;20465;-81
2023/09/05 02:06:35;;;;;;;3.20;2.60;;;16.90;99.90;;;;;;5009749;28;20271;-81
2023/09/05 02:09:01;;;;;;;6.27;3.00;;;16.80;99.90;;;;;;5002185;28;20178;-81
2023/09/05 02:11:26;;;;;;;6.00;3.20;;;16.70;99.90;;;;;;5001434;28;20174;-76
2023/09/05 02:13:52;;;;;;;5.77;3.00;;;16.60;99.90;;;;;;5015921;28;20513;-80
2023/09/05 02:16:24;;;;;;;4.40;2.57;;;16.50;99.90;;;;;;5010854;28;20190;-82
2023/09/05 02:18:50;;;;;;;3.50;3.20;;;16.40;99.90;;;;;;5010534;28;20186;-79
2023/09/05 02:21:16;;;;;;;6.63;3.80;;;16.30;99.90;;;;;;5000641;28;20471;-78
2023/09/05 02:23:42;;;;;;;4.70;3.00;;;16.20;99.90;;;;;;4999168;28;20203;-82
2023/09/05 02:26:08;;;;;;;5.00;3.30;;;16.10;99.90;;;;;;5003012;28;21003;-80
2023/09/05 02:28:33;;;;;;;4.47;4.00;;;16.00;99.90;;;;;;5012136;28;20198;-80
2023/09/05 02:31:06;;;;;;;3.50;3.03;;;15.90;99.90;;;;;;4999967;28;20487;-83
2023/09/05 02:33:34;;;;;;;4.27;3.20;;;15.80;99.90;;;;;;4999653;28;20203;-78
2023/09/05 02:36:30;;;;;;;5.40;2.73;;;15.60;99.90;;;;;;4997398;28;20456;-84
2023/09/05 02:38:55;;;;;;;4.57;3.57;;;15.50;99.90;;;;;;4993421;28;20452;-77
2023/09/05 02:41:21;;;;;;;4.43;2.60;;;15.50;99.90;;;;;;4994620;28;20428;-83
2023/09/05 02:43:46;;;;;;;3.93;2.93;;;15.10;99.90;;;;;;4997485;28;20199;-83
2023/09/05 02:46:12;;;;;;;3.50;2.80;;;14.90;99.90;;;;;;5009759;28;20187;-80
2023/09/05 02:48:39;;;;;;;8.80;3.33;;;14.70;99.90;;;;;;5002694;28;20195;-83
2023/09/05 02:51:11;;;;;;;5.27;3.10;;;14.50;99.90;;;;;;5004538;28;20203;-80
2023/09/05 02:53:38;;;;;;;4.70;2.93;;;14.40;99.90;;;;;;5001622;28;21002;-81
2023/09/05 02:56:04;;;;;;;9.83;3.83;;;14.30;99.90;;;;;;4999559;28;20439;-82
2023/09/05 02:58:30;;;;;;;5.10;3.67;;;14.30;99.90;;;;;;4998335;28;21014;-83
2023/09/05 03:01:09;;;;;;;4.83;2.63;;;14.20;99.90;;;;;;5001261;28;20862;-81
2023/09/05 03:03:35;;;;;;;3.97;2.87;;;14.10;99.90;;;;;;5002419;28;20495;-81
2023/09/05 03:06:11;;;;;;;4.07;3.67;;;14.00;99.90;;;;;;4993159;28;20422;-81
2023/09/05 03:08:38;;;;;;;8.40;3.23;;;13.90;99.90;;;;;;5000819;28;20178;-81
2023/09/05 03:11:04;;;;;;;3.70;3.00;;;13.90;99.90;;;;;;5000632;28;20477;-80
2023/09/05 03:13:29;;;;;;;6.40;3.20;;;13.90;99.90;;;;;;5004505;28;20457;-82
2023/09/05 03:15:55;;;;;;;7.13;4.13;;;13.90;99.90;;;;;;5007683;28;20210;-79
2023/09/05 03:18:20;;;;;;;6.73;3.17;;;14.00;99.90;;;;;;5013100;28;20233;-87
2023/09/05 03:20:46;;;;;;;5.77;2.97;;;13.90;99.90;;;;;;5008193;28;20209;-76
2023/09/05 03:23:15;;;;;;;7.03;3.30;;;13.80;99.90;;;;;;5011905;28;20703;-83
2023/09/05 03:25:40;;;;;;;4.53;3.50;;;13.80;99.90;;;;;;5008458;28;20194;-79
2023/09/05 03:28:07;;;;;;;9.90;4.23;;;13.80;99.90;;;;;;5007435;28;20452;-79
2023/09/05 03:30:32;;;;;;;9.23;3.80;;;13.70;99.90;;;;;;5003589;28;20202;-83
2023/09/05 03:32:58;;;;;;;7.83;3.27;;;13.70;99.90;;;;;;5013248;28;20527;-80
2023/09/05 03:35:23;;;;;;;3.60;2.70;;;13.60;99.90;;;;;;5005436;28;20290;-83
2023/09/05 03:37:49;;;;;;;4.87;3.13;;;13.50;99.90;;;;;;5007472;28;20203;-84
2023/09/05 03:40:14;;;;;;;7.53;3.13;;;13.40;99.90;;;;;;5002919;28;20218;-83
2023/09/05 03:42:40;;;;;;;7.53;4.63;;;13.40;99.90;;;;;;5002938;28;20621;-78
2023/09/05 03:45:07;;;;;;;4.90;3.27;;;13.30;99.90;;;;;;5000948;28;20183;-83
2023/09/05 03:47:32;;;;;;;6.83;4.37;;;13.30;99.90;;;;;;5000590;28;20499;-81
2023/09/05 03:49:58;;;;;;;5.93;3.87;;;13.40;99.90;;;;;;5001956;28;20438;-83
2023/09/05 03:52:24;;;;;;;4.20;3.30;;;13.40;99.90;;;;;;5000836;28;20193;-77
2023/09/05 03:54:49;;;;;;;6.10;3.53;;;13.40;99.90;;;;;;5000537;28;20405;-82
2023/09/05 03:57:16;;;;;;;5.40;3.37;;;13.40;99.90;;;;;;5000570;28;20187;-79
2023/09/05 03:59:41;;;;;;;5.63;3.07;;;13.40;99.90;;;;;;5001014;28;20198;-81
2023/09/05 04:02:07;;;;;;;4.17;3.10;;;13.40;99.90;;;;;;4998447;28;20450;-79
2023/09/05 04:04:32;;;;;;;4.83;3.47;;;13.50;99.90;;;;;;5005171;28;20205;-80
2023/09/05 04:06:58;;;;;;;4.90;3.03;;;13.50;99.90;;;;;;5013615;28;20208;-80
2023/09/05 04:09:23;;;;;;;6.77;3.60;;;13.40;99.90;;;;;;5002200;28;20193;-82
2023/09/05 04:11:49;;;;;;;5.40;3.80;;;13.50;99.90;;;;;;5000593;28;20182;-79
2023/09/05 04:14:14;;;;;;;4.80;3.57;;;13.60;99.90;;;;;;5003571;28;20207;-83
2023/09/05 04:16:41;;;;;;;4.10;3.30;;;13.70;99.90;;;;;;5001251;28;20753;-81
2023/09/05 04:19:08;;;;;;;4.23;2.80;;;13.70;99.90;;;;;;4999846;28;20186;-83
2023/09/05 04:21:33;;;;;;;10.13;3.67;;;13.70;99.90;;;;;;5011938;28;20430;-81
2023/09/05 04:23:59;;;;;;;4.03;2.90;;;13.70;99.90;;;;;;5018900;28;20463;-79
2023/09/05 04:26:25;;;;;;;5.33;3.00;;;13.70;99.90;;;;;;5010718;28;20229;-80
2023/09/05 04:28:51;;;;;;;5.30;3.03;;;13.80;99.90;;;;;;5008056;28;20182;-80
2023/09/05 04:31:18;;;;;;;4.00;3.30;;;13.90;99.90;;;;;;5005718;28;20432;-79
2023/09/05 04:33:44;;;;;;;11.00;3.10;;;14.70;99.90;;;;;;5005679;28;20211;-81
2023/09/05 04:36:10;;;;;;;7.83;4.43;;;14.10;99.90;;;;;;5010276;28;20924;-83
2023/09/05 04:38:43;;;;;;;4.47;3.50;;;14.10;99.90;;;;;;5008156;28;20195;-82
2023/09/05 04:41:08;;;;;;;3.87;2.80;;;14.20;99.90;;;;;;5026518;28;20229;-82
2023/09/05 04:43:34;;;;;;;5.23;3.30;;;14.10;99.90;;;;;;5005022;28;20919;-83
2023/09/05 04:45:59;;;;;;;3.57;3.23;;;14.20;99.90;;;;;;5007183;28;20193;-80
2023/09/05 04:48:25;;;;;;;5.10;3.00;;;14.20;99.90;;;;;;4997525;28;20186;-79
2023/09/05 04:50:51;;;;;;;4.80;2.90;;;14.20;99.90;;;;;;5005234;28;20663;-80
2023/09/05 04:53:16;;;;;;;4.70;3.40;;;14.10;99.90;;;;;;5002222;28;20223;-81
2023/09/05 04:55:42;;;;;;;4.60;3.40;;;14.20;99.90;;;;;;5003092;28;21078;-81
2023/09/05 04:58:08;;;;;;;6.13;3.80;;;14.20;99.90;;;;;;5000293;28;20661;-80
2023/09/05 05:00:34;;;;;;;7.20;3.90;;;14.30;99.90;;;;;;5002184;28;20206;-83
2023/09/05 05:02:59;;;;;;;6.30;3.47;;;14.50;99.90;;;;;;5007512;28;20573;-82
2023/09/05 05:05:25;;;;;;;4.80;3.40;;;14.70;99.90;;;;;;5000097;28;20176;-83
2023/09/05 05:07:51;;;;;;;8.90;3.27;;;14.80;99.90;;;;;;5003023;28;20171;-79
2023/09/05 05:10:16;;;;;;;5.23;3.73;;;15.20;99.90;;;;;;5005072;28;20209;-83
2023/09/05 05:12:42;;;;;;;5.90;3.03;;;15.80;99.90;;;;;;5000312;28;20183;-82
2023/09/05 05:15:08;;;;;;;4.13;3.20;;;17.10;99.90;;;;;;5002154;28;20185;-81
2023/09/05 05:17:34;;;;;;;5.93;3.57;;;18.50;99.90;;;;;;4999644;28;20677;-83
2023/09/05 05:20:00;;;;;;;3.60;3.30;;;19.90;99.90;;;;;;4997920;28;20458;-78
2023/09/05 05:22:25;;;;;;;5.07;3.17;;;21.20;99.90;;;;;;4999158;28;21372;-79
2023/09/05 05:24:51;;;;;;;7.33;3.20;;;22.60;99.90;;;;;;5009371;28;20724;-80
2023/09/05 05:27:17;;;;;;;3.90;2.70;;;23.90;99.90;;;;;;5008651;28;20782;-83
2023/09/05 05:29:43;;;;;;;4.93;3.20;;;24.30;99.90;;;;;;4999866;28;20179;-79
2023/09/05 05:32:08;;;;;;;4.80;3.10;;;25.50;99.90;;;;;;5013498;28;21085;-79
2023/09/05 05:34:34;;;;;;;9.80;3.17;;;27.20;99.90;;;;;;5011094;28;20458;-83
2023/09/05 05:37:00;;;;;;;4.93;3.30;;;28.90;97.10;;;;;;5009826;28;20206;-81
2023/09/05 05:39:26;;;;;;;3.43;3.03;;;29.70;92.00;;;;;;5009979;28;20210;-81
2023/09/05 05:41:51;;;;;;;4.33;3.57;;;30.60;86.60;;;;;;5011278;28;20524;-81
2023/09/05 05:44:17;;;;;;;5.10;3.33;;;;;;;;;;5009832;28;20199;-82
2023/09/05 05:46:43;;;;;;;4.40;3.07;;;;;;;;;;5011128;28;20224;-80
2023/09/05 05:49:09;;;;;;;6.57;3.60;;;31.70;74.70;;;;;;5004692;28;20441;-81
2023/09/05 05:51:35;;;;;;;4.00;3.47;;;32.70;70.70;;;;;;5001367;28;20518;-79
2023/09/05 05:54:01;;;;;;;5.10;3.43;;;34.20;67.10;;;;;;5009073;28;20208;-81
2023/09/05 05:56:26;;;;;;;6.77;4.43;;;35.00;59.80;;;;;;5001398;28;20436;-80
2023/09/05 05:58:52;;;;;;;5.37;4.37;;;34.50;59.30;;;;;;4997072;28;20187;-80
2023/09/05 06:01:20;;;;;;;4.07;3.73;;;35.20;57.20;;;;;;5001354;28;20237;-79
2023/09/05 06:03:46;;;;;;;5.50;4.70;;;36.10;53.20;;;;;;4997774;28;20201;-83
2023/09/05 06:06:12;;;;;;;5.73;5.33;;;36.50;52.60;;;;;;5014084;28;20447;-81
2023/09/05 06:08:39;;;;;;;6.43;5.83;;;;;;;;;;5002524;28;22118;-80
2023/09/05 06:11:04;;;;;;;5.87;5.27;;;35.80;51.00;;;;;;5001525;28;20486;-84
2023/09/05 06:13:30;;;;;;;7.53;6.73;;;35.60;51.90;;;;;;4992865;28;20581;-82
2023/09/05 06:15:56;;;;;;;12.17;6.70;;;34.90;51.60;;;;;;5000507;28;20220;-79
2023/09/05 06:18:21;;;;;;;7.93;6.37;;;35.10;52.20;;;;;;5009691;28;20198;-78
2023/09/05 06:20:47;;;;;;;6.93;6.43;;;35.40;52.00;;;;;;5003270;28;20555;-82
2023/09/05 06:23:12;;;;;;;6.87;6.27;;;34.70;51.50;;;;;;5000008;28;20205;-82
2023/09/05 06:25:38;;;;;;;6.67;6.27;;;34.70;52.30;;;;;;5001879;28;20242;-79
2023/09/05 06:28:04;;;;;;;7.03;6.43;;;34.90;52.80;;;;;;4999334;28;20185;-83
2023/09/05 06:30:30;;;;;;;7.50;6.70;;;35.20;52.30;;;;;;4997937;28;20449;-80
2023/09/05 06:32:56;;;;;;;7.57;6.90;;;35.60;50.50;;;;;;4998293;28;20209;-81
2023/09/05 06:35:22;;;;;;;7.60;7.00;;;;;;;;;;4999083;28;20281;-83
2023/09/05 06:37:55;;;;;;;7.63;7.03;;;35.70;49.20;;;;;;4999359;28;20191;-80
2023/09/05 06:40:21;;;;;;;8.17;7.47;;;;;;;;;;5007362;28;20470;-84
2023/09/05 06:42:47;;;;;;;7.63;6.77;;;35.10;50.30;;;;;;5018458;28;20464;-79
2023/09/05 06:45:13;;;;;;;7.50;6.50;;;34.60;51.60;;;;;;5011134;28;20431;-82
2023/09/05 06:47:38;;;;;;;8.33;6.87;;;35.00;51.20;;;;;;5011409;28;20213;-79
2023/09/05 06:50:05;;;;;;;5.80;5.30;;;33.70;52.30;;;;;;5006997;28;20215;-78
2023/09/05 06:52:31;;;;;;;6.43;5.70;;;35.00;52.30;;;;;;5010046;28;20191;-84
2023/09/05 06:54:56;;;;;;;7.90;5.87;;;36.70;51.20;;;;;;5007667;28;20459;-81
2023/09/05 06:57:22;;;;;;;6.53;6.03;;;37.00;46.70;;;;;;5004159;28;20525;-82
2023/09/05 06:59:50;;;;;;;6.97;6.47;;;38.00;46.40;;;;;;4999487;28;20219;-79
2023/09/05 07:02:16;;;;;;;9.10;7.77;;;38.20;45.60;;;;;;5002131;28;20181;-84
2023/09/05 07:04:41;;;;;;;7.13;6.73;;;38.50;45.90;;;;;;5005657;28;20993;-80
2023/09/05 07:07:08;;;;;;;7.60;6.83;;;38.30;44.30;;;;;;5012354;28;20189;-82
2023/09/05 07:09:34;;;;;;;7.47;6.23;;;36.90;46.00;;;;;;5010573;28;20210;-79
2023/09/05 07:12:00;;;;;;;7.20;6.67;;;35.30;48.00;;;;;;5003562;28;20440;-80
2023/09/05 07:14:25;;;;;;;6.40;5.80;;;34.60;48.40;;;;;;5004760;28;20456;-81
2023/09/05 07:16:51;;;;;;;6.70;5.70;;;34.00;49.90;;;;;;5008478;28;20204;-82
2023/09/05 07:19:17;;;;;;;6.73;6.23;;;34.00;50.50;;;;;;5003608;28;20190;-81
2023/09/05 07:21:43;;;;;;;5.30;4.90;;;34.20;49.60;;;;;;5002920;28;20193;-83
2023/09/05 07:24:11;;;;;;;5.27;4.90;;;33.70;49.90;;;;;;5011551;28;20460;-82
2023/09/05 07:26:38;;;;;;;5.43;4.93;;;34.00;51.20;;;;;;5006816;28;20442;-78
2023/09/05 07:29:04;;;;;;;5.40;4.90;;;33.50;52.10;;;;;;5003782;28;20600;-79
2023/09/05 07:31:31;;;;;;;7.90;4.83;;;33.70;51.10;;;;;;5006146;28;20459;-82
2023/09/05 07:34:00;;;;;;;5.97;4.50;;;33.90;50.90;;;;;;5001673;28;20454;-83
2023/09/05 07:36:27;;;;;;;5.30;4.57;;;33.30;51.00;;;;;;5002625;28;20459;-80
2023/09/05 07:38:53;;;;;;;4.00;3.70;;;32.40;51.60;;;;;;5005003;28;20493;-80
2023/09/05 07:41:19;;;;;;;6.70;4.50;;;32.60;53.30;;;;;;5002459;28;20459;-82
2023/09/05 07:43:45;;;;;;;7.80;4.40;;;32.90;52.30;;;;;;5000784;28;20317;-80
2023/09/05 07:46:11;;;;;;;4.93;4.50;;;32.80;52.60;;;;;;4998722;28;20176;-79
2023/09/05 07:48:37;;;;;;;5.73;4.40;;;31.80;52.60;;;;;;5005225;28;20449;-78
2023/09/05 07:51:05;;;;;;;4.77;4.37;;;31.50;54.00;;;;;;5017710;28;20472;-75
2023/09/05 07:53:33;;;;;;;5.13;4.57;;;31.60;53.90;;;;;;5010957;28;20456;-78
2023/09/05 07:55:58;;;;;;;5.77;3.93;;;31.30;54.00;;;;;;5011256;28;20447;-84
2023/09/05 07:58:26;;;;;;;3.73;3.43;;;31.10;54.90;;;;;;5003995;28;20442;-78
2023/09/05 08:00:53;;;;;;;4.90;4.27;;;31.00;55.50;;;;;;5009118;28;20251;-83
2023/09/05 08:03:19;;;;;;;3.90;3.60;;;31.10;55.40;;;;;;5004514;28;20452;-83
2023/09/05 08:05:45;;;;;;;5.50;3.87;;;30.80;55.30;;;;;;5006800;28;20429;-82
2023/09/05 08:08:10;;;;;;;6.63;3.60;;;30.30;56.30;;;;;;5002771;28;20505;-83
2023/09/05 08:10:37;;;;;;;3.70;3.30;;;29.70;57.20;;;;;;5000554;28;20735;-84
2023/09/05 08:13:03;;;;;;;3.80;3.10;;;29.20;58.30;;;;;;4999888;28;20198;-85
2023/09/05 08:15:28;;;;;;;3.90;3.50;;;29.20;59.10;;;;;;5001025;28;20498;-83
2023/09/05 08:17:54;;;;;;;4.27;3.53;;;29.60;60.00;;;;;;5000698;28;20980;-84
2023/09/05 08:20:21;;;;;;;7.13;2.97;;;;;;;;;;5007295;28;20196;-82
2023/09/05 08:22:48;;;;;;;3.77;3.10;;;30.30;57.80;;;;;;5002231;28;20181;-82
2023/09/05 08:25:15;;;;;;;3.70;3.13;;;29.80;58.30;;;;;;5001964;28;20563;-78
2023/09/05 08:27:41;;;;;;;4.17;3.30;;;29.70;58.80;;;;;;5010365;28;20409;-82
2023/09/05 08:30:11;;;;;;;2.97;2.73;;;29.60;59.80;;;;;;5010238;28;20451;-78
2023/09/05 08:32:39;;;;;;;4.43;3.27;;;29.60;59.60;;;;;;5008465;28;20447;-81
2023/09/05 08:35:10;;;;;;;6.60;4.00;;;30.40;60.40;;;;;;5004664;28;20436;-80
2023/09/05 08:37:37;;;;;;;6.53;3.10;;;30.00;58.60;;;;;;5003070;28;20466;-83
2023/09/05 08:40:05;;;;;;;3.67;2.70;;;30.20;59.40;;;;;;4998616;28;20534;-80
2023/09/05 08:42:32;;;;;;;4.10;3.03;;;29.60;58.20;;;;;;4997450;28;20469;-81
2023/09/05 08:45:09;;;;;;;4.63;2.47;;;29.20;58.70;;;;;;5005578;28;20473;-79
2023/09/05 08:47:35;;;;;;;2.63;2.40;;;;;;;;;;5007438;28;20439;-80
2023/09/05 08:50:00;;;;;;;5.23;2.30;;;29.50;59.80;;;;;;5010410;28;20434;-80
2023/09/05 08:52:32;;;;;;;4.30;2.27;;;29.90;61.40;;;;;;5000195;28;20884;-80
2023/09/05 08:54:59;;;;;;;4.20;2.70;;;29.60;58.40;;;;;;5007704;28;20240;-79
2023/09/05 08:57:27;;;;;;;3.60;3.30;;;29.50;58.30;;;;;;4999094;28;20509;-82
2023/09/05 08:59:54;;;;;;;3.10;2.80;;;29.60;59.20;;;;;;5006193;28;20458;-79
2023/09/05 09:02:19;;;;;;;3.13;2.80;;;29.50;59.00;;;;;;5007221;28;20542;-80
2023/09/05 09:04:53;;;;;;;2.93;2.63;;;29.10;59.10;;;;;;5002868;28;20478;-80
2023/09/05 09:07:22;;;;;;;3.17;2.87;;;29.50;60.50;;;;;;5014683;28;20640;-83
2023/09/05 09:09:47;;;;;;;2.90;2.60;;;29.60;59.90;;;;;;5005358;28;20427;-79
2023/09/05 09:12:13;;;;;;;3.10;2.83;;;30.40;60.40;;;;;;5005622;28;20476;-79
2023/09/05 09:14:38;;;;;;;3.97;3.07;;;30.30;57.50;;;;;;4997069;28;20209;-82
2023/09/05 09:17:05;;;;;;;3.50;2.47;;;30.20;58.20;;;;;;5000047;28;20659;-83
2023/09/05 09:19:31;;;;;;;2.83;2.57;;;;;;;;;;4998535;28;20780;-83
2023/09/05 09:22:02;;;;;;;4.93;3.30;;;28.80;58.10;;;;;;5000916;28;20434;-82
2023/09/05 09:24:35;;;;;;;4.90;2.90;;;28.80;60.70;;;;;;4998694;28;20710;-78
2023/09/05 09:27:02;;;;;;;4.50;3.20;;;29.30;60.00;;;;;;5008456;28;20459;-84
2023/09/05 09:29:28;;;;;;;8.27;3.70;;;30.00;60.50;;;;;;5007249;28;20448;-80
2023/09/05 09:32:03;;;;;;;2.73;2.50;;;30.20;57.90;;;;;;5000013;28;20438;-78
2023/09/05 09:34:29;;;;;;;3.90;2.47;;;30.30;58.60;;;;;;5010475;28;20647;-79
2023/09/05 09:36:54;;;;;;;3.10;2.80;;;30.50;58.20;;;;;;5003393;28;20464;-81
2023/09/05 09:39:20;;;;;;;4.43;2.30;;;30.40;56.80;;;;;;5000317;28;20265;-81
2023/09/05 09:41:47;;;;;;;2.50;2.30;;;30.30;56.10;;;;;;5001668;28;20189;-84
2023/09/05 09:44:25;;;;;;;3.17;2.87;;;30.00;56.90;;;;;;5003102;28;20254;-82
2023/09/05 09:46:52;;;;;;;7.60;3.10;;;29.70;58.10;;;;;;5003023;28;20432;-76
2023/09/05 09:49:19;;;;;;;2.97;2.67;;;29.90;57.40;;;;;;5009125;28;20811;-76
2023/09/05 09:51:48;;;;;;;5.33;3.20;;;30.40;59.50;;;;;;5000344;28;20489;-82
2023/09/05 09:54:17;;;;;;;3.63;3.13;;;30.10;57.60;;;;;;4997089;28;20464;-81
2023/09/05 09:56:45;;;;;;;4.60;2.97;;;29.50;57.70;;;;;;4994383;28;20441;-78
2023/09/05 09:59:11;;;;;;;4.77;3.13;;;29.60;58.70;;;;;;4996461;28;20437;-79
2023/09/05 10:01:38;;;;;;;3.30;3.00;;;29.70;60.70;;;;;;4997508;28;20477;-80
2023/09/05 10:04:04;;;;;;;2.70;2.40;;;29.90;59.60;;;;;;5008442;28;20525;-81
2023/09/05 10:06:30;;;;;;;4.73;3.43;;;;;;;;;;5004669;28;20439;-85
2023/09/05 10:08:56;;;;;;;3.10;2.80;;;30.50;58.20;;;;;;5009562;28;20434;-79
2023/09/05 10:11:22;;;;;;;3.23;2.93;;;30.80;58.90;;;;;;5013473;28;20421;-78
2023/09/05 10:13:49;;;;;;;3.77;3.40;;;30.00;58.30;;;;;;5014007;28;20470;-83
2023/09/05 10:16:16;;;;;;;3.73;3.00;;;29.20;59.80;;;;;;4996448;28;20435;-86
2023/09/05 10:18:43;;;;;;;3.30;2.90;;;27.70;63.30;;;;;;4997278;28;20437;-82
2023/09/05 10:21:10;;;;;;;4.20;2.43;;;27.00;66.80;;;;;;4997486;28;20910;-86
2023/09/05 10:23:37;;;;;;;3.30;2.40;;;26.60;70.10;;;;;;5000620;28;20436;-79
2023/09/05 10:26:04;;;;;;;4.17;2.47;;;26.40;70.80;;;;;;4999083;28;20435;-80
2023/09/05 10:28:30;;;;;;;4.10;2.77;;;26.30;71.40;;;;;;4998101;28;20451;-82
2023/09/05 10:31:05;;;;;;;2.73;2.47;;;26.10;71.10;;;;;;5001472;28;20432;-84
2023/09/05 10:33:36;;;;;;;3.83;2.30;;;25.80;72.40;;;;;;5012925;28;20450;-81
2023/09/05 10:36:02;;;;;;;4.07;2.23;;;25.80;72.10;;;;;;5006108;28;20435;-83
2023/09/05 10:38:29;;;;;;;4.33;3.20;;;25.70;74.40;;;;;;4998389;28;20453;-81
2023/09/05 10:40:56;;;;;;;6.13;2.70;;;25.70;76.00;;;;;;5005439;28;20220;-83
2023/09/05 10:43:22;;;;;;;2.63;2.00;;;25.80;76.90;;;;;;5002840;28;20554;-83
2023/09/05 10:46:02;;;;;;;3.20;2.13;;;25.90;73.90;;;;;;5008319;28;20186;-82
2023/09/05 10:48:40;;;;;;;3.00;2.47;;;25.80;73.30;;;;;;4999651;28;21948;-82
2023/09/05 10:51:11;;;;;;;2.63;2.43;;;25.80;72.90;;;;;;4995177;28;20445;-80
2023/09/05 10:53:47;;;;;;;3.00;2.53;;;25.70;73.80;;;;;;4997270;28;20502;-79
2023/09/05 10:56:41;;;;;;;3.20;2.27;;;25.80;72.30;;;;;;4998072;28;21481;-83
2023/09/05 10:59:26;;;;;;;8.20;2.30;;;26.00;75.00;;;;;;4999089;28;21039;-83
2023/09/05 11:01:56;;;;;;;2.80;2.50;;;26.00;74.00;;;;;;5002145;28;20450;-78
2023/09/05 11:04:26;;;;;;;5.60;3.80;;;26.20;74.20;;;;;;4992923;28;20474;-82
2023/09/05 11:07:13;;;;;;;3.27;2.20;;;26.30;71.90;;;;;;4988455;28;20541;-81
2023/09/05 11:09:44;;;;;;;2.63;1.87;;;26.40;74.70;;;;;;4984935;28;20475;-80
2023/09/05 11:12:11;;;;;;;4.33;2.67;;;26.40;72.90;;;;;;4987019;28;20443;-83
2023/09/05 11:14:36;;;;;;;2.70;2.20;;;26.50;73.40;;;;;;5000701;28;20827;-81
2023/09/05 11:17:02;;;;;;;3.30;2.30;;;26.70;74.40;;;;;;4994805;28;20443;-82
2023/09/05 11:19:38;;;;;;;2.60;2.10;;;26.80;72.60;;;;;;5007742;28;20221;-84
2023/09/05 11:22:08;;;;;;;3.73;2.60;;;26.80;71.30;;;;;;5001054;28;20190;-82
2023/09/05 11:24:34;;;;;;;3.17;1.90;;;26.70;73.60;;;;;;4997066;28;20453;-80
2023/09/05 11:26:59;;;;;;;4.00;2.30;;;26.70;73.20;;;;;;4998542;28;21096;-85
2023/09/05 11:29:27;;;;;;;4.87;2.40;;;26.70;73.80;;;;;;5001545;28;20171;-85
2023/09/05 11:31:59;;;;;;;5.73;2.57;;;26.90;72.80;;;;;;5002773;28;20181;-80
2023/09/05 11:34:25;;;;;;;2.60;2.03;;;27.00;73.30;;;;;;4994771;28;20596;-80
2023/09/05 11:36:51;;;;;;;6.00;2.80;;;27.10;72.10;;;;;;4995827;28;20441;-81
2023/09/05 11:39:17;;;;;;;2.70;1.93;;;27.20;71.90;;;;;;4996189;28;20432;-79
2023/09/05 11:41:43;;;;;;;3.73;2.37;;;27.20;73.70;;;;;;4997529;28;20180;-85
2023/09/05 11:44:09;;;;;;;4.10;2.30;;;27.20;70.70;;;;;;4995805;28;20442;-82
2023/09/05 11:46:40;;;;;;;3.00;2.40;;;27.30;72.80;;;;;;4995564;28;20181;-79
2023/09/05 11:49:06;;;;;;;5.60;2.23;;;;;;;;;;4997913;28;20238;-82
2023/09/05 11:51:32;;;;;;;2.50;1.80;;;27.60;72.50;;;;;;4995250;28;20439;-80
2023/09/05 11:53:58;;;;;;;2.77;2.57;;;27.70;70.40;;;;;;4993341;28;21098;-82
2023/09/05 11:56:24;;;;;;;5.27;2.23;;;27.70;70.40;;;;;;4999430;28;20188;-82
2023/09/05 11:58:50;;;;;;;4.80;2.87;;;28.00;71.90;;;;;;5001665;28;20478;-82
2023/09/05 12:01:27;;;;;;;3.20;2.40;;;28.10;74.30;;;;;;4999631;28;20493;-83
2023/09/05 12:04:03;;;;;;;2.13;1.93;;;28.20;69.60;;;;;;4999277;28;20214;-78
2023/09/05 12:06:34;;;;;;;2.60;2.17;;;28.20;69.90;;;;;;4999651;28;20880;-78
2023/09/05 12:09:00;;;;;;;4.80;2.27;;;28.10;68.30;;;;;;4992094;28;20866;-84
2023/09/05 12:11:26;;;;;;;4.60;2.37;;;27.90;69.40;;;;;;5000218;28;20437;-85
2023/09/05 12:13:57;;;;;;;3.10;2.17;;;27.70;71.40;;;;;;4999019;28;20462;-83
2023/09/05 12:16:23;;;;;;;4.53;2.10;;;27.70;68.80;;;;;;4996282;28;20729;-84
2023/09/05 12:18:57;;;;;;;5.00;2.40;;;27.80;69.50;;;;;;4990960;28;20478;-84
2023/09/05 12:21:25;;;;;;;4.07;1.80;;;28.10;70.30;;;;;;4996231;28;20450;-81
2023/09/05 12:23:51;;;;;;;4.10;1.90;;;27.90;67.60;;;;;;4995325;28;20552;-83
2023/09/05 12:26:18;;;;;;;3.33;1.97;;;27.80;68.60;;;;;;5004906;28;20955;-82
2023/09/05 12:28:53;;;;;;;3.00;1.80;;;27.70;69.70;;;;;;4988316;28;20459;-83
2023/09/05 12:31:21;;;;;;;2.07;1.50;;;27.80;69.90;;;;;;4996749;28;21270;-85
2023/09/05 12:33:46;;;;;;;2.73;2.00;;;28.00;66.20;;;;;;4995452;28;21065;-84
2023/09/05 12:36:12;;;;;;;3.40;2.00;;;27.90;71.30;;;;;;5008463;28;20522;-83
2023/09/05 12:38:37;;;;;;;3.03;2.37;;;28.00;68.10;;;;;;4992884;28;20215;-83
2023/09/05 12:41:03;;;;;;;2.50;1.87;;;28.00;68.70;;;;;;4997944;28;20221;-83
2023/09/05 12:43:29;;;;;;;2.57;2.00;;;28.20;67.80;;;;;;4996919;28;20304;-84
2023/09/05 12:45:54;;;;;;;2.93;2.43;;;28.20;67.20;;;;;;4994944;28;20187;-83
2023/09/05 12:48:20;;;;;;;2.17;1.90;;;28.30;64.00;;;;;;4994879;28;20217;-85
2023/09/05 12:50:48;;;;;;;2.17;1.73;;;28.20;63.30;;;;;;4988676;28;20188;-84
2023/09/05 12:53:14;;;;;;;2.23;2.00;;;28.10;66.90;;;;;;4988919;28;20214;-85